createdAt,value
2022-12-04T00:02:44.559Z,6.27
2022-12-04T00:05:46.935Z,6.21
2022-12-04T00:08:49.654Z,6.32
2022-12-04T00:11:51.895Z,6.30
2022-12-04T00:15:24.546Z,6.26
2022-12-04T00:18:16.345Z,6.33
2022-12-04T00:21:20.327Z,6.41
2022-12-04T00:24:22.555Z,6.26
2022-12-04T00:27:24.877Z,6.30
2022-12-04T00:30:27.184Z,6.21
2022-12-04T00:33:29.441Z,6.21
2022-12-04T00:36:31.752Z,6.19
2022-12-04T00:39:34.088Z,6.08
2022-12-04T00:42:36.376Z,6.08
2022-12-04T00:45:38.700Z,6.00
2022-12-04T00:48:41.499Z,6.06
2022-12-04T00:51:43.813Z,5.87
2022-12-04T00:54:46.078Z,5.92
2022-12-04T00:57:48.605Z,5.96
2022-12-04T01:00:51.072Z,6.06
2022-12-04T01:03:54.401Z,6.05
2022-12-04T01:07:01.558Z,6.16
2022-12-04T01:10:08.916Z,6.10
2022-12-04T01:13:11.499Z,6.23
2022-12-04T01:16:28.563Z,6.21
2022-12-04T01:19:31.183Z,6.21
2022-12-04T01:22:33.492Z,6.05
2022-12-04T01:25:35.740Z,6.21
2022-12-04T01:28:38.323Z,6.23
2022-12-04T01:31:40.712Z,6.18
2022-12-04T01:34:43.127Z,6.12
2022-12-04T01:37:45.501Z,6.26
2022-12-04T01:40:48.181Z,6.14
2022-12-04T01:44:12.480Z,6.19
2022-12-04T01:47:14.787Z,6.02
2022-12-04T01:50:17.169Z,6.05
2022-12-04T01:53:19.801Z,6.06
2022-12-04T01:56:29.567Z,6.05
2022-12-04T01:59:35.721Z,6.01
2022-12-04T02:02:40.554Z,5.97
2022-12-04T02:05:42.923Z,5.79
2022-12-04T02:08:45.354Z,5.85
2022-12-04T02:12:19.938Z,5.90
2022-12-04T02:15:25.087Z,5.91
2022-12-04T02:18:38.613Z,5.90
2022-12-04T02:21:44.169Z,5.90
2022-12-04T02:25:08.131Z,5.92
2022-12-04T02:28:19.819Z,5.87
2022-12-04T02:31:28.645Z,5.78
2022-12-04T02:34:43.452Z,6.02
2022-12-04T02:38:04.213Z,5.94
2022-12-04T02:41:23.364Z,5.87
2022-12-04T02:44:39.133Z,5.90
2022-12-04T02:47:43.221Z,5.92
2022-12-04T02:50:47.564Z,5.87
2022-12-04T02:53:53.884Z,5.83
2022-12-04T02:56:56.805Z,5.90
2022-12-04T03:00:00.366Z,5.84
2022-12-04T03:03:18.341Z,5.84
2022-12-04T03:06:22.247Z,5.79
2022-12-04T03:09:38.114Z,5.78
2022-12-04T03:13:04.176Z,5.68
2022-12-04T03:16:11.073Z,5.69
2022-12-04T03:19:20.339Z,5.83
2022-12-04T03:22:24.548Z,5.78
2022-12-04T03:25:33.579Z,5.77
2022-12-04T03:29:01.752Z,5.74
2022-12-04T03:32:16.786Z,5.68
2022-12-04T03:35:28.102Z,5.53
2022-12-04T03:38:47.429Z,5.56
2022-12-04T03:41:59.766Z,5.58
2022-12-04T03:45:05.330Z,5.57
2022-12-04T03:48:23.344Z,5.51
2022-12-04T03:52:04.836Z,5.57
2022-12-04T03:55:29.195Z,5.44
2022-12-04T03:58:33.647Z,5.40
2022-12-04T04:01:39.999Z,5.26
2022-12-04T04:04:45.442Z,5.17
2022-12-04T04:07:56.984Z,5.08
2022-12-04T04:11:17.455Z,5.19
2022-12-04T04:15:14.112Z,5.08
2022-12-04T04:18:34.948Z,5.16
2022-12-04T04:21:57.771Z,5.12
2022-12-04T04:25:07.084Z,5.18
2022-12-04T04:28:27.649Z,5.26
2022-12-04T04:31:34.606Z,5.28
2022-12-04T04:35:04.967Z,5.51
2022-12-04T04:38:25.984Z,5.45
2022-12-04T04:41:42.643Z,5.57
2022-12-04T04:44:50.880Z,5.50
2022-12-04T04:48:32.043Z,5.59
2022-12-04T04:51:35.214Z,5.56
2022-12-04T04:54:37.725Z,5.65
2022-12-04T04:57:40.013Z,5.71
2022-12-04T05:00:52.899Z,5.80
2022-12-04T05:03:55.191Z,5.68
2022-12-04T05:06:57.492Z,5.72
2022-12-04T05:09:59.845Z,5.70
2022-12-04T05:13:02.145Z,5.79
2022-12-04T05:16:07.014Z,5.83
2022-12-04T05:19:27.851Z,5.72
2022-12-04T05:22:32.506Z,5.62
2022-12-04T05:25:34.746Z,5.58
2022-12-04T05:28:37.084Z,5.51
2022-12-04T05:31:39.563Z,5.63
2022-12-04T05:34:42.434Z,5.67
2022-12-04T05:37:45.648Z,5.62
2022-12-04T05:40:47.861Z,5.30
2022-12-04T05:43:50.143Z,5.28
2022-12-04T05:46:52.525Z,5.20
2022-12-04T05:49:56.250Z,5.28
2022-12-04T05:52:58.719Z,5.33
2022-12-04T05:56:02.401Z,5.51
2022-12-04T05:59:04.672Z,5.42
2022-12-04T06:02:06.992Z,5.50
2022-12-04T06:05:09.379Z,5.42
2022-12-04T06:08:11.852Z,5.56
2022-12-04T06:11:15.827Z,5.47
2022-12-04T06:14:18.176Z,5.66
2022-12-04T06:17:20.468Z,5.56
2022-12-04T06:20:22.939Z,5.25
2022-12-04T06:23:25.304Z,5.23
2022-12-04T06:26:27.760Z,5.32
2022-12-04T06:29:30.146Z,5.25
2022-12-04T06:32:32.466Z,5.44
2022-12-04T06:35:34.714Z,5.48
2022-12-04T06:38:37.198Z,5.67
2022-12-04T06:41:39.538Z,5.60
2022-12-04T06:44:41.878Z,5.72
2022-12-04T06:47:44.164Z,5.80
2022-12-04T06:50:46.397Z,5.80
2022-12-04T06:53:49.075Z,5.79
2022-12-04T06:56:51.395Z,5.89
2022-12-04T06:59:54.040Z,5.89
2022-12-04T07:02:56.402Z,5.84
2022-12-04T07:05:58.611Z,5.89
2022-12-04T07:09:06.622Z,6.00
2022-12-04T07:12:08.852Z,5.97
2022-12-04T07:15:11.322Z,5.97
2022-12-04T07:18:13.566Z,5.86
2022-12-04T07:21:21.012Z,5.70
2022-12-04T07:24:23.335Z,5.65
2022-12-04T07:27:25.602Z,5.63
2022-12-04T07:30:27.883Z,5.60
2022-12-04T07:33:30.159Z,5.82
2022-12-04T07:36:32.440Z,6.10
2022-12-04T07:39:34.930Z,6.44
2022-12-04T07:42:37.197Z,6.62
2022-12-04T07:45:39.506Z,6.89
2022-12-04T07:48:42.053Z,7.02
2022-12-04T07:51:44.391Z,7.02
2022-12-04T07:54:46.697Z,7.23
2022-12-04T07:57:48.998Z,7.49
2022-12-04T08:00:51.355Z,7.54
2022-12-04T08:03:56.710Z,7.73
2022-12-04T08:06:59.486Z,7.64
2022-12-04T08:10:01.830Z,7.51
2022-12-04T08:13:04.136Z,7.53
2022-12-04T08:16:11.520Z,7.59
2022-12-04T08:19:13.895Z,7.68
2022-12-04T08:22:20.329Z,7.49
2022-12-04T08:25:25.656Z,7.59
2022-12-04T08:28:28.425Z,7.59
2022-12-04T08:31:33.147Z,7.70
2022-12-04T08:34:35.500Z,7.53
2022-12-04T08:37:37.805Z,7.66
2022-12-04T08:40:40.074Z,7.42
2022-12-04T08:43:42.388Z,7.26
2022-12-04T08:46:44.760Z,7.40
2022-12-04T08:49:47.204Z,7.62
2022-12-04T08:52:49.462Z,7.59
2022-12-04T08:55:52.540Z,7.37
2022-12-04T08:58:56.086Z,7.52
2022-12-04T09:01:58.404Z,7.24
2022-12-04T09:05:00.756Z,7.36
2022-12-04T09:08:03.069Z,7.41
2022-12-04T09:11:09.828Z,7.55
2022-12-04T09:14:12.211Z,7.56
2022-12-04T09:17:14.897Z,7.60
2022-12-04T09:20:17.184Z,7.67
2022-12-04T09:23:19.720Z,7.84
2022-12-04T09:26:26.361Z,7.88
2022-12-04T09:29:28.713Z,8.05
2022-12-04T09:32:31.071Z,8.04
2022-12-04T09:35:34.399Z,7.95
2022-12-04T09:38:36.745Z,8.00
2022-12-04T09:42:13.289Z,8.18
2022-12-04T09:45:21.235Z,8.39
2022-12-04T09:48:29.114Z,8.74
2022-12-04T09:51:31.614Z,8.73
2022-12-04T09:54:38.636Z,8.92
2022-12-04T09:57:44.603Z,8.97
2022-12-04T10:00:49.446Z,8.79
2022-12-04T10:03:53.222Z,8.83
2022-12-04T10:07:41.311Z,8.80
2022-12-04T10:11:09.426Z,9.07
2022-12-04T10:14:42.979Z,9.32
2022-12-04T10:18:16.199Z,9.58
2022-12-04T10:21:24.692Z,9.85
2022-12-04T10:24:39.053Z,9.98
2022-12-04T10:27:53.584Z,9.97
2022-12-04T10:30:58.398Z,9.98
2022-12-04T10:34:17.720Z,9.99
2022-12-04T10:37:20.275Z,10.05
2022-12-04T10:40:25.012Z,10.18
2022-12-04T10:43:42.165Z,10.30
2022-12-04T10:46:46.274Z,10.43
2022-12-04T10:49:49.102Z,10.41
2022-12-04T10:52:51.834Z,10.37
2022-12-04T10:55:54.121Z,10.26
2022-12-04T10:59:05.717Z,10.34
2022-12-04T11:02:25.869Z,9.95
2022-12-04T11:05:55.500Z,9.99
2022-12-04T11:08:59.192Z,9.94
2022-12-04T11:12:09.927Z,10.06
2022-12-04T11:15:14.777Z,9.75
2022-12-04T11:18:49.522Z,9.54
2022-12-04T11:21:53.428Z,9.70
2022-12-04T11:24:57.953Z,9.56
2022-12-04T11:28:01.547Z,9.67
2022-12-04T11:31:05.185Z,9.74
2022-12-04T11:34:09.328Z,9.93
2022-12-04T11:37:34.090Z,10.00
2022-12-04T11:40:36.683Z,9.76
2022-12-04T11:43:50.864Z,9.83
2022-12-04T11:46:58.055Z,9.87
2022-12-04T11:50:14.399Z,10.14
2022-12-04T11:53:41.583Z,10.07
2022-12-04T11:56:48.365Z,9.88
2022-12-04T12:00:14.756Z,10.08
2022-12-04T12:03:40.101Z,9.84
2022-12-04T12:07:03.827Z,9.98
2022-12-04T12:10:17.759Z,10.07
2022-12-04T12:14:01.429Z,9.87
2022-12-04T12:17:23.618Z,9.99
2022-12-04T12:20:39.813Z,9.90
2022-12-04T12:23:51.959Z,10.09
2022-12-04T12:27:08.518Z,9.97
2022-12-04T12:30:18.269Z,9.91
2022-12-04T12:33:24.623Z,10.03
2022-12-04T12:36:29.871Z,9.90
2022-12-04T12:40:04.723Z,9.89
2022-12-04T12:43:19.791Z,9.82
2022-12-04T12:46:30.993Z,9.96
2022-12-04T12:49:55.628Z,9.98
2022-12-04T12:53:17.354Z,9.86
2022-12-04T12:56:26.181Z,9.83
2022-12-04T12:59:28.879Z,9.75
2022-12-04T13:02:41.365Z,9.82
2022-12-04T13:05:46.656Z,10.00
2022-12-04T13:09:06.993Z,10.05
2022-12-04T13:12:13.376Z,10.10
2022-12-04T13:15:17.341Z,10.13
2022-12-04T13:18:26.065Z,9.92
2022-12-04T13:21:29.859Z,9.87
2022-12-04T13:24:39.751Z,9.87
2022-12-04T13:27:50.788Z,9.77
2022-12-04T13:31:20.452Z,9.68
2022-12-04T13:34:55.126Z,9.65
2022-12-04T13:38:23.740Z,9.65
2022-12-04T13:41:27.356Z,9.65
2022-12-04T13:44:31.453Z,9.60
2022-12-04T13:47:35.514Z,9.45
2022-12-04T13:50:39.184Z,9.34
2022-12-04T13:53:43.127Z,9.27
2022-12-04T13:56:48.231Z,9.36
2022-12-04T14:00:06.501Z,9.19
2022-12-04T14:03:28.895Z,9.18
2022-12-04T14:06:41.753Z,9.16
2022-12-04T14:09:49.755Z,9.04
2022-12-04T14:12:59.757Z,9.09
2022-12-04T14:16:10.257Z,9.22
2022-12-04T14:19:26.524Z,9.12
2022-12-04T14:22:38.150Z,9.12
2022-12-04T14:25:40.586Z,9.03
2022-12-04T14:28:43.932Z,9.13
2022-12-04T14:31:46.228Z,9.19
2022-12-04T14:34:49.613Z,9.17
2022-12-04T14:37:59.397Z,9.19
2022-12-04T14:41:02.080Z,9.17
2022-12-04T14:44:04.727Z,9.06
2022-12-04T14:47:25.781Z,9.11
2022-12-04T14:50:34.717Z,9.08
2022-12-04T14:54:00.538Z,8.98
2022-12-04T14:57:27.246Z,9.11
2022-12-04T15:00:29.550Z,9.01
2022-12-04T15:03:42.748Z,8.92
2022-12-04T15:06:47.839Z,8.87
2022-12-04T15:10:10.870Z,8.85
2022-12-04T15:13:21.425Z,8.84
2022-12-04T15:16:24.197Z,8.86
2022-12-04T15:19:26.464Z,8.77
2022-12-04T15:22:29.175Z,8.85
2022-12-04T15:25:44.613Z,8.94
2022-12-04T15:28:57.396Z,8.95
2022-12-04T15:32:04.137Z,8.74
2022-12-04T15:35:10.019Z,8.71
2022-12-04T15:38:15.649Z,8.61
2022-12-04T15:41:44.335Z,8.66
2022-12-04T15:45:13.342Z,8.68
2022-12-04T15:48:24.887Z,8.50
2022-12-04T15:51:27.527Z,8.54
2022-12-04T15:54:29.818Z,8.58
2022-12-04T15:57:40.639Z,8.60
2022-12-04T16:00:44.330Z,8.55
2022-12-04T16:03:51.931Z,8.66
2022-12-04T16:06:54.305Z,8.66
2022-12-04T16:10:03.758Z,8.67
2022-12-04T16:13:06.548Z,8.67
2022-12-04T16:16:13.171Z,8.58
2022-12-04T16:19:34.722Z,8.53
2022-12-04T16:22:39.405Z,8.52
2022-12-04T16:25:41.787Z,8.57
2022-12-04T16:28:44.525Z,8.58
2022-12-04T16:31:47.052Z,8.65
2022-12-04T16:34:49.343Z,8.56
2022-12-04T16:37:51.713Z,8.55
2022-12-04T16:40:54.074Z,8.41
2022-12-04T16:43:58.811Z,8.53
2022-12-04T16:47:01.335Z,8.44
2022-12-04T16:50:04.060Z,8.43
2022-12-04T16:53:06.417Z,8.57
2022-12-04T16:56:09.539Z,8.42
2022-12-04T16:59:12.541Z,8.55
2022-12-04T17:02:21.945Z,8.48
2022-12-04T17:05:29.427Z,8.47
2022-12-04T17:08:32.146Z,8.41
2022-12-04T17:11:34.894Z,8.45
2022-12-04T17:14:37.176Z,8.46
2022-12-04T17:17:40.328Z,8.41
2022-12-04T17:20:43.644Z,8.42
2022-12-04T17:23:46.067Z,8.48
2022-12-04T17:26:48.326Z,8.61
2022-12-04T17:29:50.666Z,8.38
2022-12-04T17:32:53.118Z,8.46
2022-12-04T17:35:56.039Z,8.37
2022-12-04T17:38:59.542Z,8.36
2022-12-04T17:42:02.120Z,8.29
2022-12-04T17:45:05.101Z,8.36
2022-12-04T17:48:07.596Z,8.26
2022-12-04T17:51:18.036Z,8.34
2022-12-04T17:54:20.430Z,8.35
2022-12-04T17:57:22.850Z,8.24
2022-12-04T18:00:26.214Z,8.17
2022-12-04T18:03:29.019Z,8.16
2022-12-04T18:06:33.857Z,8.32
2022-12-04T18:09:36.344Z,8.45
2022-12-04T18:12:39.012Z,8.43
2022-12-04T18:15:41.279Z,8.34
2022-12-04T18:18:46.729Z,8.28
2022-12-04T18:21:49.629Z,8.41
2022-12-04T18:24:52.599Z,8.36
2022-12-04T18:27:54.878Z,8.44
2022-12-04T18:31:07.854Z,8.17
2022-12-04T18:34:10.883Z,8.33
2022-12-04T18:37:13.269Z,8.37
2022-12-04T18:40:15.606Z,8.33
2022-12-04T18:43:18.717Z,8.23
2022-12-04T18:46:22.200Z,8.26
2022-12-04T18:49:24.668Z,8.16
2022-12-04T18:52:26.924Z,8.10
2022-12-04T18:55:29.209Z,8.23
2022-12-04T18:58:31.572Z,8.21
2022-12-04T19:01:34.228Z,8.37
2022-12-04T19:04:36.505Z,8.33
2022-12-04T19:07:39.180Z,8.21
2022-12-04T19:10:41.530Z,8.23
2022-12-04T19:13:43.840Z,8.17
2022-12-04T19:16:46.524Z,8.23
2022-12-04T19:19:49.044Z,8.07
2022-12-04T19:22:51.324Z,8.04
2022-12-04T19:25:58.117Z,7.89
2022-12-04T19:29:01.966Z,8.07
2022-12-04T19:32:04.452Z,7.98
2022-12-04T19:35:07.125Z,8.04
2022-12-04T19:38:09.959Z,7.89
2022-12-04T19:41:16.763Z,7.89
2022-12-04T19:47:43.728Z,7.93
2022-12-04T19:50:46.005Z,7.93
2022-12-04T19:53:49.212Z,7.93
2022-12-04T19:56:52.721Z,7.93
2022-12-04T19:59:55.311Z,8.03
2022-12-04T20:02:57.978Z,7.88
2022-12-04T20:06:05.169Z,7.90
2022-12-04T20:09:10.622Z,7.83
2022-12-04T20:12:13.311Z,7.77
2022-12-04T20:15:15.799Z,7.62
2022-12-04T20:18:18.206Z,7.67
2022-12-04T20:21:26.327Z,7.76
2022-12-04T20:24:28.739Z,7.78
2022-12-04T20:27:31.021Z,7.85
2022-12-04T20:30:33.361Z,7.61
2022-12-04T20:33:35.729Z,7.55
2022-12-04T20:36:40.673Z,7.59
2022-12-04T20:39:43.109Z,7.45
2022-12-04T20:42:45.586Z,7.37
2022-12-04T20:45:48.012Z,7.57
2022-12-04T20:48:52.110Z,7.48
2022-12-04T20:51:54.626Z,7.46
2022-12-04T20:54:56.898Z,7.52
2022-12-04T20:57:59.220Z,7.33
2022-12-04T21:01:16.281Z,7.52
2022-12-04T21:04:18.987Z,7.53
2022-12-04T21:07:21.231Z,7.56
2022-12-04T21:10:23.544Z,7.53
2022-12-04T21:13:44.428Z,7.62
2022-12-04T21:16:47.685Z,7.63
2022-12-04T21:19:50.705Z,7.60
2022-12-04T21:22:53.028Z,7.69
2022-12-04T21:25:55.955Z,7.58
2022-12-04T21:28:58.650Z,7.42
2022-12-04T21:32:01.087Z,7.41
2022-12-04T21:35:03.682Z,7.53
2022-12-04T21:38:05.951Z,7.59
2022-12-04T21:41:09.285Z,7.54
2022-12-04T21:44:14.607Z,7.55
2022-12-04T21:47:17.527Z,7.49
2022-12-04T21:50:19.774Z,7.37
2022-12-04T21:53:22.455Z,7.33
2022-12-04T21:56:25.354Z,7.18
2022-12-04T21:59:27.863Z,7.23
2022-12-04T22:02:30.338Z,7.18
2022-12-04T22:05:33.119Z,7.09
2022-12-04T22:08:36.858Z,7.14
2022-12-04T22:11:41.878Z,7.30
2022-12-04T22:14:44.148Z,7.34
2022-12-04T22:17:46.625Z,7.16
2022-12-04T22:20:49.252Z,7.10
2022-12-04T22:23:56.308Z,7.01
2022-12-04T22:26:58.629Z,6.99
2022-12-04T22:30:00.884Z,6.87
2022-12-04T22:33:03.299Z,6.73
2022-12-04T22:36:14.076Z,6.83
2022-12-04T22:39:16.433Z,6.87
2022-12-04T22:42:19.043Z,6.88
2022-12-04T22:45:21.304Z,6.97
2022-12-04T22:48:24.669Z,7.15
2022-12-04T22:51:29.792Z,7.13
2022-12-04T22:54:32.206Z,7.11
2022-12-04T22:57:34.605Z,7.16
2022-12-04T23:00:36.866Z,7.30
2022-12-04T23:03:39.617Z,7.26
2022-12-04T23:06:41.893Z,7.31
2022-12-04T23:09:44.271Z,7.41
2022-12-04T23:12:46.627Z,7.36
2022-12-04T23:15:50.276Z,7.25
2022-12-04T23:18:52.958Z,7.19
2022-12-04T23:21:57.459Z,7.02
2022-12-04T23:25:00.196Z,7.16
2022-12-04T23:28:02.457Z,7.18
2022-12-04T23:31:04.994Z,7.10
2022-12-04T23:34:07.871Z,7.12
2022-12-04T23:37:10.302Z,7.04
2022-12-04T23:40:12.879Z,7.13
2022-12-04T23:43:18.576Z,7.23
2022-12-04T23:46:23.649Z,7.23
2022-12-04T23:49:26.028Z,7.24
2022-12-04T23:52:28.698Z,7.34
2022-12-04T23:55:34.227Z,7.32
2022-12-04T23:58:37.582Z,7.35
